sheffieldwx_logo
SheffieldWX - Weather From NW Sheffield Latitude - N 53° 25' 05" Longitude - W 01° 29' 18" 93m asl

Nearby METAR Data
EGNX - East Midlands, United Kingdom
Distance from station: SSE 24mi, 39km
Updated: 15/09/2019 15:20
Mostly Cloudy
Mostly Cloudy
 Wind from NW
Wind: NW 10 mph , 17 km/h
Temperature: 19°C
Dew Point: 15°C
Humidity: 78%
Barometer: 1023 hPa
Clouds: Mostly Cloudy
Visibility: 6 miles , 10 km
Cloud details: Partly Cloudy 640 m
Mostly Cloudy 1067 m
2019/09/15 14:20 EGNX 151420Z 31009KT 9999 SCT021 BKN035 19/15 Q1023
EGCN - Doncaster Sheffi, United Kingdom
Distance from station: NE 31mi, 49km
Updated: 15/09/2019 15:20
Mostly Cloudy
Mostly Cloudy
 Wind from WNW
Wind: WNW 10 mph , 17 km/h
Temperature: 17°C
Dew Point: 11°C
Humidity: 68%
Barometer: 1024 hPa
Clouds: Mostly Cloudy
Visibility: 6 miles , 10 km
Cloud details: Mostly Cloudy 975 m
2019/09/15 14:20 EGCN 151420Z 29009KT 9999 BKN032 17/11 Q1024
 
EGXS - Swinderby Raf, United Kingdom
Distance from station: E 33mi, 54km
Updated: 14/09/2019 05:50
NOT Current
Clear
Clear
 Wind from S
Wind: S 8 mph , 13 km/h
Temperature: 9°C
Wind Chill: 7°C
Dew Point: 7°C
Humidity: 87%
Barometer: 1034 hPa
Clouds: Clear
Visibility: 6 miles , 10 km
2019/09/14 04:50 EGXS 140450Z AUTO 19007KT 9999 // NCD 09/07 Q1034
EGCC - Manchester Intl, United Kingdom
Distance from station: WNW 35mi, 56km
Updated: 15/09/2019 15:20
Light rain, Drizzle, Mostly cloudy
Light rain, Drizzle, Mostly cloudy
 Wind from varies
Wind: varies 3 mph , 6 km/h
Temperature: 15°C
Dew Point: 12°C
Humidity: 82%
Barometer: 1024 hPa
Summary: Light rain, Drizzle
Clouds: Mostly Cloudy
Visibility: 6 miles , 10 km
Cloud details: Mostly Cloudy 488 m
2019/09/15 14:20 EGCC 151420Z VRB03KT 9999 8000SE -RADZ BKN016 15/12 Q1024
 
EGXP - Scampton Raf, United Kingdom
Distance from station: ENE 40mi, 65km
Updated: 15/09/2019 14:50
Overcast
Overcast
 Wind from NW
Wind: NW 15 mph , 24 km/h
Temperature: 18°C
Dew Point: 12°C
Humidity: 68%
Barometer: 1023 hPa
Clouds: Overcast
Visibility: 6 miles , 10 km
Cloud details: Overcast 853 m
2019/09/15 13:50 EGXP 151350Z AUTO 31013KT 9999 // OVC028/// 18/12 Q1023
EGXW - Waddington Raf, United Kingdom
Distance from station: E 40mi, 65km
Updated: 15/09/2019 15:20
Mostly Cloudy
Mostly Cloudy
 Wind from NW
Wind: NW 8 mph , 13 km/h
Temperature: 18°C
Dew Point: 12°C
Humidity: 68%
Barometer: 1023 hPa
Clouds: Mostly Cloudy
Visibility: 6 miles , 10 km
Cloud details: Few Clouds 732 m
Mostly Cloudy 853 m
2019/09/15 14:20 EGXW 151420Z 32007KT 9999 FEW024 BKN028 18/12 Q1023 TEMPO SCT024 RMK BLU TEMPO WHT